METAR AND TAF INFORMATION
METAR FOR LEAS
ADDS - METARS form results

(1227 UTC 22 October 2020)
Data provider http://aviationweather.gov/metar/data/
 
METAR text: LEAS 221200Z 32005KT 260V010 9999 FEW028 BKN076 16/13 Q1010 NOSIG
Conditions at: LEAS (ASTURIAS/AVILES , ES) observed 1200 UTC 22 October 2020
Temperature: 16.0°C (61°F)
Dewpoint: 13.0°C (55°F) [RH = 82%]
Pressure (altimeter): 29.82 inches Hg (1010.0 mb)
Winds: from the NW (320 degrees) at 6 MPH (5 knots; 2.6 m/s)
Visibility: 6 or more miles (10+ km)
Ceiling: 7600 feet AGL
Clouds: few clouds at 2800 feet AGL
broken clouds at 7600 feet AGL
Weather: no significant weather observed at this time

METAR text: LEAS 221130Z 30007KT 260V330 9999 FEW030 SCT070 16/13 Q1010 NOSIG
Conditions at: LEAS (ASTURIAS/AVILES , ES) observed 1130 UTC 22 October 2020
Temperature: 16.0°C (61°F)
Dewpoint: 13.0°C (55°F) [RH = 82%]
Pressure (altimeter): 29.82 inches Hg (1010.0 mb)
Winds: from the WNW (300 degrees) at 8 MPH (7 knots; 3.6 m/s)
Visibility: 6 or more miles (10+ km)
Ceiling: at least 12,000 feet AGL
Clouds: few clouds at 3000 feet AGL
scattered clouds at 7000 feet AGL
Weather: no significant weather observed at this time

Forecast for: AMD
Text: TAF AMD LEAS 220853Z 2209/2309 VRB06KT 9999 FEW030 SCT050 TX18/2213Z TN10/2307Z
Forecast period: 0900 UTC 22 October 2020 to 0900 UTC 23 October 2020
Forecast type: FROM: standard forecast or significant change
Winds: variable direction winds at 7 MPH (6 knots; 3.1 m/s)
Visibility: 6 or more miles (10+ km)
Ceiling: at least 12,000 feet AGL
Clouds: few clouds at 3000 feet AGL
scattered clouds at 5000 feet AGL
Weather: no significant weather forecast for this period
Text: PROB40
Forecast period: 1500 to 1900 UTC 22 October 2020
Forecast type: TEMPORARY: The following changes expected for less than half the time period
Visibility: missing
Ceiling: at least 12,000 feet AGL
Clouds: scattered clouds at 3000 feet AGL
Weather: SHRA  (rain showers)
Text: TEMPO 2215/2219 SHRA SCT030TCU
Forecast period: 1500 to 1900 UTC 22 October 2020
Forecast type: TEMPORARY: The following changes expected for less than half the time period
Visibility: 2.49 miles (4.01 km)
Ceiling: at least 12,000 feet AGL
Clouds: scattered clouds at 3000 feet AGL
Weather: SHRA TS  (rain showers, thunderstorm)

 AIRPORT MAP

 RUNWAY INFORMATION
Runway 11 Runway length 7218 ft Runway width 148 ft
Runway elevation 399 ft Runway displaced threshold 0 ft Runway heading 109
Runway 29 Runway length 7218 ft Runway width 148 ft
Runway elevation 399 ft Runway displaced threshold 0 ft Runway heading 289

 AIRPORT FREQUENCIES
Type APP Name APP Frequency 118.15 MHZ
Type GND Name GND Frequency 121.7 MHZ
Type TWR Name TWR Frequency 118.15 MHZ

 AIRPORT NEAR NAVIGATION AIDS
Type NDB Name Asturias Frequency 325 KHZ
Type NDB Name Asturias Frequency 387 KHZ
Type VOR-DME Name Asturias Frequency 112400 KHZ



Powered by Virtual Airlines Manager [v2.6.2]